<?xml version="1.0" encoding="UTF-8" standalone="no" ?>
<gpx xmlns="http://www.topografix.com/GPX/1/1" xmlns:xsi="http://www.w3.org/2001/XMLSchema-instance" xsi:schemaLocation="http://www.topografix.com/GPX/1/1 http://www.topografix.com/GPX/1/1/gpx.xsd" version="1.1" creator="VisuGPX - https://www.visugpx.com">
  <metadata>
    <name>Course à pied le midi</name>
  </metadata>
  <trk>
    <name><![CDATA[Course à pied le midi_1]]></name>
    <trkseg>
      <trkpt lat="48.71143" lon="7.16266">
        <ele>317</ele>
        <time>2023-12-05T10:57:54Z</time>
      </trkpt>
      <trkpt lat="48.7114" lon="7.16264">
        <ele>317.1</ele>
        <time>2023-12-05T10:57:56Z</time>
      </trkpt>
      <trkpt lat="48.71122" lon="7.16255">
        <ele>317.7</ele>
        <time>2023-12-05T10:58:03Z</time>
      </trkpt>
      <trkpt lat="48.71106" lon="7.16236">
        <ele>318</ele>
        <time>2023-12-05T10:58:10Z</time>
      </trkpt>
      <trkpt lat="48.71094" lon="7.16211">
        <ele>318.2</ele>
        <time>2023-12-05T10:58:18Z</time>
      </trkpt>
      <trkpt lat="48.71078" lon="7.16192">
        <ele>318.4</ele>
        <time>2023-12-05T10:58:25Z</time>
      </trkpt>
      <trkpt lat="48.71062" lon="7.16177">
        <ele>318.5</ele>
        <time>2023-12-05T10:58:32Z</time>
      </trkpt>
      <trkpt lat="48.71044" lon="7.1617">
        <ele>318.6</ele>
        <time>2023-12-05T10:58:39Z</time>
      </trkpt>
      <trkpt lat="48.71026" lon="7.16166">
        <ele>318.7</ele>
        <time>2023-12-05T10:58:46Z</time>
      </trkpt>
      <trkpt lat="48.71008" lon="7.16162">
        <ele>318.9</ele>
        <time>2023-12-05T10:58:53Z</time>
      </trkpt>
      <trkpt lat="48.7099" lon="7.16158">
        <ele>319.3</ele>
        <time>2023-12-05T10:59:00Z</time>
      </trkpt>
      <trkpt lat="48.70971" lon="7.16153">
        <ele>319.8</ele>
        <time>2023-12-05T10:59:08Z</time>
      </trkpt>
      <trkpt lat="48.70953" lon="7.1615">
        <ele>320.4</ele>
        <time>2023-12-05T10:59:15Z</time>
      </trkpt>
      <trkpt lat="48.70933" lon="7.16144">
        <ele>321.2</ele>
        <time>2023-12-05T10:59:22Z</time>
      </trkpt>
      <trkpt lat="48.70913" lon="7.16139">
        <ele>321.9</ele>
        <time>2023-12-05T10:59:30Z</time>
      </trkpt>
      <trkpt lat="48.70894" lon="7.16135">
        <ele>322.6</ele>
        <time>2023-12-05T10:59:38Z</time>
      </trkpt>
      <trkpt lat="48.70874" lon="7.16129">
        <ele>323.3</ele>
        <time>2023-12-05T10:59:46Z</time>
      </trkpt>
      <trkpt lat="48.70854" lon="7.16124">
        <ele>324.1</ele>
        <time>2023-12-05T10:59:54Z</time>
      </trkpt>
      <trkpt lat="48.70836" lon="7.16121">
        <ele>324.9</ele>
        <time>2023-12-05T11:00:01Z</time>
      </trkpt>
      <trkpt lat="48.70816" lon="7.16116">
        <ele>325.8</ele>
        <time>2023-12-05T11:00:09Z</time>
      </trkpt>
      <trkpt lat="48.70796" lon="7.1611">
        <ele>326.7</ele>
        <time>2023-12-05T11:00:17Z</time>
      </trkpt>
      <trkpt lat="48.70777" lon="7.16105">
        <ele>327.5</ele>
        <time>2023-12-05T11:00:25Z</time>
      </trkpt>
      <trkpt lat="48.70758" lon="7.16106">
        <ele>328.5</ele>
        <time>2023-12-05T11:00:33Z</time>
      </trkpt>
      <trkpt lat="48.70739" lon="7.16102">
        <ele>329.4</ele>
        <time>2023-12-05T11:00:41Z</time>
      </trkpt>
      <trkpt lat="48.70719" lon="7.161">
        <ele>330.4</ele>
        <time>2023-12-05T11:00:50Z</time>
      </trkpt>
      <trkpt lat="48.707" lon="7.16098">
        <ele>331.4</ele>
        <time>2023-12-05T11:00:58Z</time>
      </trkpt>
      <trkpt lat="48.70682" lon="7.16099">
        <ele>332.4</ele>
        <time>2023-12-05T11:01:06Z</time>
      </trkpt>
      <trkpt lat="48.70663" lon="7.16097">
        <ele>333.4</ele>
        <time>2023-12-05T11:01:14Z</time>
      </trkpt>
      <trkpt lat="48.70644" lon="7.161">
        <ele>334.4</ele>
        <time>2023-12-05T11:01:22Z</time>
      </trkpt>
      <trkpt lat="48.70626" lon="7.16104">
        <ele>335.4</ele>
        <time>2023-12-05T11:01:30Z</time>
      </trkpt>
      <trkpt lat="48.70608" lon="7.16105">
        <ele>336.3</ele>
        <time>2023-12-05T11:01:38Z</time>
      </trkpt>
      <trkpt lat="48.70589" lon="7.16106">
        <ele>337.1</ele>
        <time>2023-12-05T11:01:47Z</time>
      </trkpt>
      <trkpt lat="48.7057" lon="7.16106">
        <ele>337.8</ele>
        <time>2023-12-05T11:01:55Z</time>
      </trkpt>
      <trkpt lat="48.70551" lon="7.16104">
        <ele>338.4</ele>
        <time>2023-12-05T11:02:03Z</time>
      </trkpt>
      <trkpt lat="48.70532" lon="7.16099">
        <ele>338.6</ele>
        <time>2023-12-05T11:02:11Z</time>
      </trkpt>
      <trkpt lat="48.70513" lon="7.16094">
        <ele>338.7</ele>
        <time>2023-12-05T11:02:19Z</time>
      </trkpt>
      <trkpt lat="48.70495" lon="7.16082">
        <ele>338.7</ele>
        <time>2023-12-05T11:02:27Z</time>
      </trkpt>
      <trkpt lat="48.70477" lon="7.16072">
        <ele>338.9</ele>
        <time>2023-12-05T11:02:35Z</time>
      </trkpt>
      <trkpt lat="48.70458" lon="7.16065">
        <ele>339.3</ele>
        <time>2023-12-05T11:02:43Z</time>
      </trkpt>
      <trkpt lat="48.7044" lon="7.16056">
        <ele>340</ele>
        <time>2023-12-05T11:02:51Z</time>
      </trkpt>
      <trkpt lat="48.70421" lon="7.16047">
        <ele>340.9</ele>
        <time>2023-12-05T11:03:00Z</time>
      </trkpt>
      <trkpt lat="48.70403" lon="7.16042">
        <ele>341.9</ele>
        <time>2023-12-05T11:03:08Z</time>
      </trkpt>
      <trkpt lat="48.70385" lon="7.16038">
        <ele>343</ele>
        <time>2023-12-05T11:03:16Z</time>
      </trkpt>
      <trkpt lat="48.70367" lon="7.16035">
        <ele>344.2</ele>
        <time>2023-12-05T11:03:24Z</time>
      </trkpt>
      <trkpt lat="48.70348" lon="7.16035">
        <ele>345.5</ele>
        <time>2023-12-05T11:03:33Z</time>
      </trkpt>
      <trkpt lat="48.70329" lon="7.16037">
        <ele>346.8</ele>
        <time>2023-12-05T11:03:41Z</time>
      </trkpt>
      <trkpt lat="48.70309" lon="7.16036">
        <ele>348.1</ele>
        <time>2023-12-05T11:03:49Z</time>
      </trkpt>
      <trkpt lat="48.70289" lon="7.16035">
        <ele>349.2</ele>
        <time>2023-12-05T11:03:57Z</time>
      </trkpt>
      <trkpt lat="48.70271" lon="7.16036">
        <ele>350.2</ele>
        <time>2023-12-05T11:04:05Z</time>
      </trkpt>
      <trkpt lat="48.70253" lon="7.16038">
        <ele>351.2</ele>
        <time>2023-12-05T11:04:13Z</time>
      </trkpt>
      <trkpt lat="48.70233" lon="7.16038">
        <ele>352.3</ele>
        <time>2023-12-05T11:04:22Z</time>
      </trkpt>
      <trkpt lat="48.70215" lon="7.16038">
        <ele>352.9</ele>
        <time>2023-12-05T11:04:30Z</time>
      </trkpt>
      <trkpt lat="48.70203" lon="7.16016">
        <ele>352.6</ele>
        <time>2023-12-05T11:04:38Z</time>
      </trkpt>
      <trkpt lat="48.70204" lon="7.15984">
        <ele>352</ele>
        <time>2023-12-05T11:04:45Z</time>
      </trkpt>
      <trkpt lat="48.70208" lon="7.15955">
        <ele>351.6</ele>
        <time>2023-12-05T11:04:52Z</time>
      </trkpt>
      <trkpt lat="48.70212" lon="7.15928">
        <ele>351.4</ele>
        <time>2023-12-05T11:04:59Z</time>
      </trkpt>
      <trkpt lat="48.70216" lon="7.15899">
        <ele>351.1</ele>
        <time>2023-12-05T11:05:07Z</time>
      </trkpt>
      <trkpt lat="48.70219" lon="7.15869">
        <ele>350.9</ele>
        <time>2023-12-05T11:05:15Z</time>
      </trkpt>
      <trkpt lat="48.70219" lon="7.15841">
        <ele>350.8</ele>
        <time>2023-12-05T11:05:22Z</time>
      </trkpt>
      <trkpt lat="48.70219" lon="7.15813">
        <ele>350.8</ele>
        <time>2023-12-05T11:05:29Z</time>
      </trkpt>
      <trkpt lat="48.70217" lon="7.15785">
        <ele>351.2</ele>
        <time>2023-12-05T11:05:36Z</time>
      </trkpt>
      <trkpt lat="48.70217" lon="7.15755">
        <ele>352</ele>
        <time>2023-12-05T11:05:44Z</time>
      </trkpt>
      <trkpt lat="48.70217" lon="7.15726">
        <ele>353</ele>
        <time>2023-12-05T11:05:52Z</time>
      </trkpt>
      <trkpt lat="48.70217" lon="7.15696">
        <ele>354.2</ele>
        <time>2023-12-05T11:06:00Z</time>
      </trkpt>
      <trkpt lat="48.70217" lon="7.15668">
        <ele>355.5</ele>
        <time>2023-12-05T11:06:08Z</time>
      </trkpt>
      <trkpt lat="48.70216" lon="7.15639">
        <ele>356.9</ele>
        <time>2023-12-05T11:06:16Z</time>
      </trkpt>
      <trkpt lat="48.70217" lon="7.15611">
        <ele>358.2</ele>
        <time>2023-12-05T11:06:24Z</time>
      </trkpt>
      <trkpt lat="48.70216" lon="7.15583">
        <ele>359.6</ele>
        <time>2023-12-05T11:06:32Z</time>
      </trkpt>
      <trkpt lat="48.70215" lon="7.15553">
        <ele>360.7</ele>
        <time>2023-12-05T11:06:40Z</time>
      </trkpt>
      <trkpt lat="48.70213" lon="7.15525">
        <ele>361.5</ele>
        <time>2023-12-05T11:06:47Z</time>
      </trkpt>
      <trkpt lat="48.70211" lon="7.15495">
        <ele>362.3</ele>
        <time>2023-12-05T11:06:55Z</time>
      </trkpt>
      <trkpt lat="48.70207" lon="7.15466">
        <ele>362.8</ele>
        <time>2023-12-05T11:07:03Z</time>
      </trkpt>
      <trkpt lat="48.70205" lon="7.15439">
        <ele>363</ele>
        <time>2023-12-05T11:07:10Z</time>
      </trkpt>
      <trkpt lat="48.70203" lon="7.1541">
        <ele>363.1</ele>
        <time>2023-12-05T11:07:17Z</time>
      </trkpt>
      <trkpt lat="48.70202" lon="7.15382">
        <ele>362.7</ele>
        <time>2023-12-05T11:07:24Z</time>
      </trkpt>
      <trkpt lat="48.70202" lon="7.15353">
        <ele>361.9</ele>
        <time>2023-12-05T11:07:31Z</time>
      </trkpt>
      <trkpt lat="48.70203" lon="7.15325">
        <ele>361.2</ele>
        <time>2023-12-05T11:07:38Z</time>
      </trkpt>
      <trkpt lat="48.70214" lon="7.15302">
        <ele>360.4</ele>
        <time>2023-12-05T11:07:45Z</time>
      </trkpt>
      <trkpt lat="48.70229" lon="7.15281">
        <ele>359.9</ele>
        <time>2023-12-05T11:07:52Z</time>
      </trkpt>
      <trkpt lat="48.70243" lon="7.15261">
        <ele>359.6</ele>
        <time>2023-12-05T11:07:59Z</time>
      </trkpt>
      <trkpt lat="48.70258" lon="7.15243">
        <ele>359.5</ele>
        <time>2023-12-05T11:08:06Z</time>
      </trkpt>
      <trkpt lat="48.70276" lon="7.15228">
        <ele>359.3</ele>
        <time>2023-12-05T11:08:13Z</time>
      </trkpt>
      <trkpt lat="48.70294" lon="7.15217">
        <ele>359.2</ele>
        <time>2023-12-05T11:08:20Z</time>
      </trkpt>
      <trkpt lat="48.70313" lon="7.15222">
        <ele>359.3</ele>
        <time>2023-12-05T11:08:27Z</time>
      </trkpt>
      <trkpt lat="48.70328" lon="7.15238">
        <ele>359.5</ele>
        <time>2023-12-05T11:08:35Z</time>
      </trkpt>
      <trkpt lat="48.70346" lon="7.15252">
        <ele>359.5</ele>
        <time>2023-12-05T11:08:42Z</time>
      </trkpt>
      <trkpt lat="48.70365" lon="7.1526">
        <ele>359.2</ele>
        <time>2023-12-05T11:08:49Z</time>
      </trkpt>
      <trkpt lat="48.70384" lon="7.15269">
        <ele>359</ele>
        <time>2023-12-05T11:08:56Z</time>
      </trkpt>
      <trkpt lat="48.70403" lon="7.15278">
        <ele>359</ele>
        <time>2023-12-05T11:09:03Z</time>
      </trkpt>
      <trkpt lat="48.70423" lon="7.15286">
        <ele>359.1</ele>
        <time>2023-12-05T11:09:10Z</time>
      </trkpt>
      <trkpt lat="48.70442" lon="7.15295">
        <ele>358.9</ele>
        <time>2023-12-05T11:09:17Z</time>
      </trkpt>
      <trkpt lat="48.7046" lon="7.15304">
        <ele>358.8</ele>
        <time>2023-12-05T11:09:24Z</time>
      </trkpt>
      <trkpt lat="48.70477" lon="7.15316">
        <ele>358.6</ele>
        <time>2023-12-05T11:09:31Z</time>
      </trkpt>
      <trkpt lat="48.70492" lon="7.15332">
        <ele>358.4</ele>
        <time>2023-12-05T11:09:38Z</time>
      </trkpt>
      <trkpt lat="48.70509" lon="7.15348">
        <ele>357.9</ele>
        <time>2023-12-05T11:09:45Z</time>
      </trkpt>
      <trkpt lat="48.70525" lon="7.15364">
        <ele>357.5</ele>
        <time>2023-12-05T11:09:52Z</time>
      </trkpt>
      <trkpt lat="48.70542" lon="7.15377">
        <ele>357.2</ele>
        <time>2023-12-05T11:09:59Z</time>
      </trkpt>
      <trkpt lat="48.7056" lon="7.15384">
        <ele>356.9</ele>
        <time>2023-12-05T11:10:06Z</time>
      </trkpt>
      <trkpt lat="48.70578" lon="7.15393">
        <ele>356.7</ele>
        <time>2023-12-05T11:10:13Z</time>
      </trkpt>
      <trkpt lat="48.70597" lon="7.15401">
        <ele>356.5</ele>
        <time>2023-12-05T11:10:20Z</time>
      </trkpt>
      <trkpt lat="48.70617" lon="7.15411">
        <ele>356.1</ele>
        <time>2023-12-05T11:10:28Z</time>
      </trkpt>
      <trkpt lat="48.70635" lon="7.1542">
        <ele>355.7</ele>
        <time>2023-12-05T11:10:35Z</time>
      </trkpt>
      <trkpt lat="48.70652" lon="7.15428">
        <ele>355.6</ele>
        <time>2023-12-05T11:10:42Z</time>
      </trkpt>
      <trkpt lat="48.7067" lon="7.15437">
        <ele>355.2</ele>
        <time>2023-12-05T11:10:49Z</time>
      </trkpt>
      <trkpt lat="48.70689" lon="7.15446">
        <ele>354.5</ele>
        <time>2023-12-05T11:10:57Z</time>
      </trkpt>
      <trkpt lat="48.70706" lon="7.15456">
        <ele>353.5</ele>
        <time>2023-12-05T11:11:04Z</time>
      </trkpt>
      <trkpt lat="48.70724" lon="7.15469">
        <ele>352.4</ele>
        <time>2023-12-05T11:11:11Z</time>
      </trkpt>
      <trkpt lat="48.70739" lon="7.15484">
        <ele>351.5</ele>
        <time>2023-12-05T11:11:18Z</time>
      </trkpt>
      <trkpt lat="48.70754" lon="7.15501">
        <ele>350.9</ele>
        <time>2023-12-05T11:11:25Z</time>
      </trkpt>
      <trkpt lat="48.7077" lon="7.1552">
        <ele>350</ele>
        <time>2023-12-05T11:11:33Z</time>
      </trkpt>
      <trkpt lat="48.70786" lon="7.15537">
        <ele>349.3</ele>
        <time>2023-12-05T11:11:41Z</time>
      </trkpt>
      <trkpt lat="48.70802" lon="7.15555">
        <ele>348.5</ele>
        <time>2023-12-05T11:11:49Z</time>
      </trkpt>
      <trkpt lat="48.70818" lon="7.15571">
        <ele>347.8</ele>
        <time>2023-12-05T11:11:56Z</time>
      </trkpt>
      <trkpt lat="48.70833" lon="7.15587">
        <ele>347.3</ele>
        <time>2023-12-05T11:12:03Z</time>
      </trkpt>
      <trkpt lat="48.7085" lon="7.15602">
        <ele>346.6</ele>
        <time>2023-12-05T11:12:10Z</time>
      </trkpt>
      <trkpt lat="48.70867" lon="7.15617">
        <ele>345.8</ele>
        <time>2023-12-05T11:12:18Z</time>
      </trkpt>
      <trkpt lat="48.70885" lon="7.15629">
        <ele>345</ele>
        <time>2023-12-05T11:12:26Z</time>
      </trkpt>
      <trkpt lat="48.70901" lon="7.15644">
        <ele>344</ele>
        <time>2023-12-05T11:12:34Z</time>
      </trkpt>
      <trkpt lat="48.70917" lon="7.15658">
        <ele>342.9</ele>
        <time>2023-12-05T11:12:41Z</time>
      </trkpt>
      <trkpt lat="48.70934" lon="7.15674">
        <ele>341.4</ele>
        <time>2023-12-05T11:12:49Z</time>
      </trkpt>
      <trkpt lat="48.70951" lon="7.15683">
        <ele>340.3</ele>
        <time>2023-12-05T11:12:55Z</time>
      </trkpt>
      <trkpt lat="48.70956" lon="7.15681">
        <ele>341.7</ele>
        <time>2023-12-05T11:12:57Z</time>
      </trkpt>
      <trkpt lat="48.70956" lon="7.15653">
        <ele>343.1</ele>
        <time>2023-12-05T11:13:05Z</time>
      </trkpt>
      <trkpt lat="48.70954" lon="7.15625">
        <ele>344.4</ele>
        <time>2023-12-05T11:13:12Z</time>
      </trkpt>
      <trkpt lat="48.70952" lon="7.15596">
        <ele>345.6</ele>
        <time>2023-12-05T11:13:19Z</time>
      </trkpt>
      <trkpt lat="48.7095" lon="7.15568">
        <ele>346.6</ele>
        <time>2023-12-05T11:13:26Z</time>
      </trkpt>
      <trkpt lat="48.70949" lon="7.15539">
        <ele>347.7</ele>
        <time>2023-12-05T11:13:34Z</time>
      </trkpt>
      <trkpt lat="48.70948" lon="7.15509">
        <ele>348.6</ele>
        <time>2023-12-05T11:13:42Z</time>
      </trkpt>
      <trkpt lat="48.70947" lon="7.1548">
        <ele>349.4</ele>
        <time>2023-12-05T11:13:50Z</time>
      </trkpt>
      <trkpt lat="48.70948" lon="7.15452">
        <ele>350.1</ele>
        <time>2023-12-05T11:13:58Z</time>
      </trkpt>
      <trkpt lat="48.70949" lon="7.15424">
        <ele>350.4</ele>
        <time>2023-12-05T11:14:06Z</time>
      </trkpt>
      <trkpt lat="48.70951" lon="7.15397">
        <ele>350.3</ele>
        <time>2023-12-05T11:14:13Z</time>
      </trkpt>
      <trkpt lat="48.70952" lon="7.15369">
        <ele>349.7</ele>
        <time>2023-12-05T11:14:20Z</time>
      </trkpt>
      <trkpt lat="48.70955" lon="7.15338">
        <ele>349.1</ele>
        <time>2023-12-05T11:14:28Z</time>
      </trkpt>
      <trkpt lat="48.70958" lon="7.15308">
        <ele>348.4</ele>
        <time>2023-12-05T11:14:36Z</time>
      </trkpt>
      <trkpt lat="48.7096" lon="7.15278">
        <ele>347.9</ele>
        <time>2023-12-05T11:14:44Z</time>
      </trkpt>
      <trkpt lat="48.70962" lon="7.15247">
        <ele>347.3</ele>
        <time>2023-12-05T11:14:52Z</time>
      </trkpt>
      <trkpt lat="48.70965" lon="7.1522">
        <ele>346.7</ele>
        <time>2023-12-05T11:14:59Z</time>
      </trkpt>
      <trkpt lat="48.70968" lon="7.15192">
        <ele>346.1</ele>
        <time>2023-12-05T11:15:06Z</time>
      </trkpt>
      <trkpt lat="48.70971" lon="7.15165">
        <ele>345.1</ele>
        <time>2023-12-05T11:15:13Z</time>
      </trkpt>
      <trkpt lat="48.70974" lon="7.15138">
        <ele>344</ele>
        <time>2023-12-05T11:15:20Z</time>
      </trkpt>
      <trkpt lat="48.70979" lon="7.15111">
        <ele>343.2</ele>
        <time>2023-12-05T11:15:27Z</time>
      </trkpt>
      <trkpt lat="48.70985" lon="7.15083">
        <ele>342.2</ele>
        <time>2023-12-05T11:15:34Z</time>
      </trkpt>
      <trkpt lat="48.70992" lon="7.15054">
        <ele>341.4</ele>
        <time>2023-12-05T11:15:41Z</time>
      </trkpt>
      <trkpt lat="48.70999" lon="7.15028">
        <ele>340.9</ele>
        <time>2023-12-05T11:15:48Z</time>
      </trkpt>
      <trkpt lat="48.71005" lon="7.14999">
        <ele>340.4</ele>
        <time>2023-12-05T11:15:55Z</time>
      </trkpt>
      <trkpt lat="48.71013" lon="7.1497">
        <ele>340</ele>
        <time>2023-12-05T11:16:02Z</time>
      </trkpt>
      <trkpt lat="48.7102" lon="7.14955">
        <ele>339.9</ele>
        <time>2023-12-05T11:16:07Z</time>
      </trkpt>
      <trkpt lat="48.71024" lon="7.14956">
        <ele>339.8</ele>
        <time>2023-12-05T11:16:09Z</time>
      </trkpt>
      <trkpt lat="48.71041" lon="7.14968">
        <ele>339.8</ele>
        <time>2023-12-05T11:16:17Z</time>
      </trkpt>
      <trkpt lat="48.7106" lon="7.14973">
        <ele>339.7</ele>
        <time>2023-12-05T11:16:25Z</time>
      </trkpt>
      <trkpt lat="48.71078" lon="7.14974">
        <ele>339.6</ele>
        <time>2023-12-05T11:16:32Z</time>
      </trkpt>
      <trkpt lat="48.71097" lon="7.14975">
        <ele>339.9</ele>
        <time>2023-12-05T11:16:41Z</time>
      </trkpt>
      <trkpt lat="48.71101" lon="7.14979">
        <ele>340.2</ele>
        <time>2023-12-05T11:16:44Z</time>
      </trkpt>
      <trkpt lat="48.711" lon="7.15007">
        <ele>341.1</ele>
        <time>2023-12-05T11:16:54Z</time>
      </trkpt>
      <trkpt lat="48.711" lon="7.15027">
        <ele>341.6</ele>
        <time>2023-12-05T11:17:00Z</time>
      </trkpt>
      <trkpt lat="48.71106" lon="7.15031">
        <ele>341.7</ele>
        <time>2023-12-05T11:17:03Z</time>
      </trkpt>
      <trkpt lat="48.71124" lon="7.15028">
        <ele>341.6</ele>
        <time>2023-12-05T11:17:11Z</time>
      </trkpt>
      <trkpt lat="48.71142" lon="7.1502">
        <ele>341.7</ele>
        <time>2023-12-05T11:17:19Z</time>
      </trkpt>
      <trkpt lat="48.71159" lon="7.15012">
        <ele>341.8</ele>
        <time>2023-12-05T11:17:27Z</time>
      </trkpt>
      <trkpt lat="48.71177" lon="7.15008">
        <ele>342.1</ele>
        <time>2023-12-05T11:17:34Z</time>
      </trkpt>
      <trkpt lat="48.71196" lon="7.14999">
        <ele>342.3</ele>
        <time>2023-12-05T11:17:41Z</time>
      </trkpt>
      <trkpt lat="48.71214" lon="7.14992">
        <ele>342.7</ele>
        <time>2023-12-05T11:17:49Z</time>
      </trkpt>
      <trkpt lat="48.71231" lon="7.14984">
        <ele>343.1</ele>
        <time>2023-12-05T11:17:56Z</time>
      </trkpt>
      <trkpt lat="48.71249" lon="7.14976">
        <ele>343.8</ele>
        <time>2023-12-05T11:18:03Z</time>
      </trkpt>
      <trkpt lat="48.71268" lon="7.14968">
        <ele>344.3</ele>
        <time>2023-12-05T11:18:11Z</time>
      </trkpt>
      <trkpt lat="48.71287" lon="7.1496">
        <ele>345.1</ele>
        <time>2023-12-05T11:18:18Z</time>
      </trkpt>
      <trkpt lat="48.71306" lon="7.14956">
        <ele>345.8</ele>
        <time>2023-12-05T11:18:24Z</time>
      </trkpt>
      <trkpt lat="48.71325" lon="7.1495">
        <ele>346.3</ele>
        <time>2023-12-05T11:18:31Z</time>
      </trkpt>
      <trkpt lat="48.71345" lon="7.14944">
        <ele>346.1</ele>
        <time>2023-12-05T11:18:38Z</time>
      </trkpt>
      <trkpt lat="48.71365" lon="7.14939">
        <ele>346.4</ele>
        <time>2023-12-05T11:18:45Z</time>
      </trkpt>
      <trkpt lat="48.71384" lon="7.14933">
        <ele>347.1</ele>
        <time>2023-12-05T11:18:52Z</time>
      </trkpt>
      <trkpt lat="48.71404" lon="7.14926">
        <ele>347.2</ele>
        <time>2023-12-05T11:19:00Z</time>
      </trkpt>
      <trkpt lat="48.71421" lon="7.14918">
        <ele>347.2</ele>
        <time>2023-12-05T11:19:07Z</time>
      </trkpt>
      <trkpt lat="48.7144" lon="7.14912">
        <ele>347.4</ele>
        <time>2023-12-05T11:19:14Z</time>
      </trkpt>
      <trkpt lat="48.7146" lon="7.14907">
        <ele>347.5</ele>
        <time>2023-12-05T11:19:21Z</time>
      </trkpt>
      <trkpt lat="48.71478" lon="7.14898">
        <ele>347.4</ele>
        <time>2023-12-05T11:19:28Z</time>
      </trkpt>
      <trkpt lat="48.71495" lon="7.14889">
        <ele>347.6</ele>
        <time>2023-12-05T11:19:35Z</time>
      </trkpt>
      <trkpt lat="48.71515" lon="7.14882">
        <ele>347.9</ele>
        <time>2023-12-05T11:19:42Z</time>
      </trkpt>
      <trkpt lat="48.71534" lon="7.14878">
        <ele>348.1</ele>
        <time>2023-12-05T11:19:49Z</time>
      </trkpt>
      <trkpt lat="48.71554" lon="7.14871">
        <ele>347.9</ele>
        <time>2023-12-05T11:19:56Z</time>
      </trkpt>
      <trkpt lat="48.71573" lon="7.14866">
        <ele>347.8</ele>
        <time>2023-12-05T11:20:03Z</time>
      </trkpt>
      <trkpt lat="48.71592" lon="7.14859">
        <ele>347.9</ele>
        <time>2023-12-05T11:20:10Z</time>
      </trkpt>
      <trkpt lat="48.71611" lon="7.14853">
        <ele>348</ele>
        <time>2023-12-05T11:20:17Z</time>
      </trkpt>
      <trkpt lat="48.7163" lon="7.14847">
        <ele>347.9</ele>
        <time>2023-12-05T11:20:24Z</time>
      </trkpt>
      <trkpt lat="48.7165" lon="7.1484">
        <ele>348.1</ele>
        <time>2023-12-05T11:20:31Z</time>
      </trkpt>
      <trkpt lat="48.7167" lon="7.14835">
        <ele>348.3</ele>
        <time>2023-12-05T11:20:38Z</time>
      </trkpt>
      <trkpt lat="48.71689" lon="7.14828">
        <ele>348.7</ele>
        <time>2023-12-05T11:20:44Z</time>
      </trkpt>
      <trkpt lat="48.71703" lon="7.14848">
        <ele>349</ele>
        <time>2023-12-05T11:20:51Z</time>
      </trkpt>
      <trkpt lat="48.71709" lon="7.14877">
        <ele>349</ele>
        <time>2023-12-05T11:20:59Z</time>
      </trkpt>
      <trkpt lat="48.71716" lon="7.14906">
        <ele>348.6</ele>
        <time>2023-12-05T11:21:06Z</time>
      </trkpt>
      <trkpt lat="48.71723" lon="7.14933">
        <ele>348.7</ele>
        <time>2023-12-05T11:21:13Z</time>
      </trkpt>
      <trkpt lat="48.71728" lon="7.14963">
        <ele>348.6</ele>
        <time>2023-12-05T11:21:21Z</time>
      </trkpt>
      <trkpt lat="48.71734" lon="7.14992">
        <ele>348.6</ele>
        <time>2023-12-05T11:21:29Z</time>
      </trkpt>
      <trkpt lat="48.71737" lon="7.15023">
        <ele>348.6</ele>
        <time>2023-12-05T11:21:38Z</time>
      </trkpt>
      <trkpt lat="48.7174" lon="7.15053">
        <ele>348.3</ele>
        <time>2023-12-05T11:21:46Z</time>
      </trkpt>
      <trkpt lat="48.71747" lon="7.15082">
        <ele>348</ele>
        <time>2023-12-05T11:21:54Z</time>
      </trkpt>
      <trkpt lat="48.71753" lon="7.15109">
        <ele>347.8</ele>
        <time>2023-12-05T11:22:01Z</time>
      </trkpt>
      <trkpt lat="48.71759" lon="7.15138">
        <ele>347.6</ele>
        <time>2023-12-05T11:22:09Z</time>
      </trkpt>
      <trkpt lat="48.71762" lon="7.15167">
        <ele>347.3</ele>
        <time>2023-12-05T11:22:16Z</time>
      </trkpt>
      <trkpt lat="48.71764" lon="7.15197">
        <ele>347.1</ele>
        <time>2023-12-05T11:22:23Z</time>
      </trkpt>
      <trkpt lat="48.7177" lon="7.15224">
        <ele>347</ele>
        <time>2023-12-05T11:22:31Z</time>
      </trkpt>
      <trkpt lat="48.71776" lon="7.15251">
        <ele>346.9</ele>
        <time>2023-12-05T11:22:39Z</time>
      </trkpt>
      <trkpt lat="48.71787" lon="7.15277">
        <ele>346.5</ele>
        <time>2023-12-05T11:22:47Z</time>
      </trkpt>
      <trkpt lat="48.71797" lon="7.15293">
        <ele>346.1</ele>
        <time>2023-12-05T11:22:53Z</time>
      </trkpt>
      <trkpt lat="48.71814" lon="7.15284">
        <ele>345.6</ele>
        <time>2023-12-05T11:23:01Z</time>
      </trkpt>
      <trkpt lat="48.71829" lon="7.15266">
        <ele>345</ele>
        <time>2023-12-05T11:23:09Z</time>
      </trkpt>
      <trkpt lat="48.71845" lon="7.15249">
        <ele>344.3</ele>
        <time>2023-12-05T11:23:17Z</time>
      </trkpt>
      <trkpt lat="48.71862" lon="7.15233">
        <ele>343.4</ele>
        <time>2023-12-05T11:23:25Z</time>
      </trkpt>
      <trkpt lat="48.71878" lon="7.1522">
        <ele>342.3</ele>
        <time>2023-12-05T11:23:32Z</time>
      </trkpt>
      <trkpt lat="48.71892" lon="7.15203">
        <ele>341.3</ele>
        <time>2023-12-05T11:23:38Z</time>
      </trkpt>
      <trkpt lat="48.71908" lon="7.15185">
        <ele>340.3</ele>
        <time>2023-12-05T11:23:45Z</time>
      </trkpt>
      <trkpt lat="48.71924" lon="7.1517">
        <ele>339.4</ele>
        <time>2023-12-05T11:23:52Z</time>
      </trkpt>
      <trkpt lat="48.71942" lon="7.15158">
        <ele>338.6</ele>
        <time>2023-12-05T11:23:59Z</time>
      </trkpt>
      <trkpt lat="48.71959" lon="7.15146">
        <ele>337.9</ele>
        <time>2023-12-05T11:24:05Z</time>
      </trkpt>
      <trkpt lat="48.71977" lon="7.15134">
        <ele>337.1</ele>
        <time>2023-12-05T11:24:12Z</time>
      </trkpt>
      <trkpt lat="48.71994" lon="7.1512">
        <ele>336.2</ele>
        <time>2023-12-05T11:24:19Z</time>
      </trkpt>
      <trkpt lat="48.72012" lon="7.15108">
        <ele>335.3</ele>
        <time>2023-12-05T11:24:26Z</time>
      </trkpt>
      <trkpt lat="48.72029" lon="7.15098">
        <ele>334.5</ele>
        <time>2023-12-05T11:24:33Z</time>
      </trkpt>
      <trkpt lat="48.72047" lon="7.15092">
        <ele>333.4</ele>
        <time>2023-12-05T11:24:40Z</time>
      </trkpt>
      <trkpt lat="48.72065" lon="7.15085">
        <ele>332.4</ele>
        <time>2023-12-05T11:24:47Z</time>
      </trkpt>
      <trkpt lat="48.72084" lon="7.15075">
        <ele>331.4</ele>
        <time>2023-12-05T11:24:54Z</time>
      </trkpt>
      <trkpt lat="48.72104" lon="7.15068">
        <ele>330.7</ele>
        <time>2023-12-05T11:25:01Z</time>
      </trkpt>
      <trkpt lat="48.72114" lon="7.15088">
        <ele>330.4</ele>
        <time>2023-12-05T11:25:08Z</time>
      </trkpt>
      <trkpt lat="48.72119" lon="7.15116">
        <ele>330.2</ele>
        <time>2023-12-05T11:25:15Z</time>
      </trkpt>
      <trkpt lat="48.72125" lon="7.15145">
        <ele>329.8</ele>
        <time>2023-12-05T11:25:22Z</time>
      </trkpt>
      <trkpt lat="48.72128" lon="7.15149">
        <ele>329.5</ele>
        <time>2023-12-05T11:25:24Z</time>
      </trkpt>
      <trkpt lat="48.72146" lon="7.15141">
        <ele>328.1</ele>
        <time>2023-12-05T11:25:31Z</time>
      </trkpt>
      <trkpt lat="48.72165" lon="7.1513">
        <ele>326.5</ele>
        <time>2023-12-05T11:25:38Z</time>
      </trkpt>
      <trkpt lat="48.72184" lon="7.15116">
        <ele>324.9</ele>
        <time>2023-12-05T11:25:45Z</time>
      </trkpt>
      <trkpt lat="48.722" lon="7.15103">
        <ele>323.4</ele>
        <time>2023-12-05T11:25:51Z</time>
      </trkpt>
      <trkpt lat="48.72218" lon="7.15088">
        <ele>321.6</ele>
        <time>2023-12-05T11:25:58Z</time>
      </trkpt>
      <trkpt lat="48.72234" lon="7.15071">
        <ele>320</ele>
        <time>2023-12-05T11:26:04Z</time>
      </trkpt>
      <trkpt lat="48.7225" lon="7.15056">
        <ele>318.5</ele>
        <time>2023-12-05T11:26:10Z</time>
      </trkpt>
      <trkpt lat="48.72267" lon="7.15042">
        <ele>317</ele>
        <time>2023-12-05T11:26:17Z</time>
      </trkpt>
      <trkpt lat="48.72283" lon="7.15024">
        <ele>315.4</ele>
        <time>2023-12-05T11:26:25Z</time>
      </trkpt>
      <trkpt lat="48.72299" lon="7.15005">
        <ele>313.6</ele>
        <time>2023-12-05T11:26:33Z</time>
      </trkpt>
      <trkpt lat="48.72316" lon="7.14986">
        <ele>312</ele>
        <time>2023-12-05T11:26:40Z</time>
      </trkpt>
      <trkpt lat="48.72331" lon="7.14968">
        <ele>310.6</ele>
        <time>2023-12-05T11:26:46Z</time>
      </trkpt>
      <trkpt lat="48.72345" lon="7.14951">
        <ele>309.5</ele>
        <time>2023-12-05T11:26:52Z</time>
      </trkpt>
      <trkpt lat="48.7236" lon="7.14934">
        <ele>308.4</ele>
        <time>2023-12-05T11:26:58Z</time>
      </trkpt>
      <trkpt lat="48.72376" lon="7.14914">
        <ele>307.1</ele>
        <time>2023-12-05T11:27:05Z</time>
      </trkpt>
      <trkpt lat="48.72392" lon="7.14894">
        <ele>305.9</ele>
        <time>2023-12-05T11:27:12Z</time>
      </trkpt>
      <trkpt lat="48.72407" lon="7.14876">
        <ele>304.6</ele>
        <time>2023-12-05T11:27:19Z</time>
      </trkpt>
      <trkpt lat="48.72424" lon="7.14857">
        <ele>303.4</ele>
        <time>2023-12-05T11:27:26Z</time>
      </trkpt>
      <trkpt lat="48.7244" lon="7.14838">
        <ele>302.1</ele>
        <time>2023-12-05T11:27:33Z</time>
      </trkpt>
      <trkpt lat="48.72455" lon="7.1482">
        <ele>300.9</ele>
        <time>2023-12-05T11:27:40Z</time>
      </trkpt>
      <trkpt lat="48.72472" lon="7.14802">
        <ele>299.9</ele>
        <time>2023-12-05T11:27:47Z</time>
      </trkpt>
      <trkpt lat="48.72487" lon="7.14787">
        <ele>299</ele>
        <time>2023-12-05T11:27:54Z</time>
      </trkpt>
      <trkpt lat="48.72491" lon="7.14787">
        <ele>298.8</ele>
        <time>2023-12-05T11:27:56Z</time>
      </trkpt>
      <trkpt lat="48.72493" lon="7.14793">
        <ele>298.9</ele>
        <time>2023-12-05T11:27:58Z</time>
      </trkpt>
      <trkpt lat="48.72491" lon="7.14823">
        <ele>299.6</ele>
        <time>2023-12-05T11:28:06Z</time>
      </trkpt>
      <trkpt lat="48.72489" lon="7.14852">
        <ele>300.4</ele>
        <time>2023-12-05T11:28:14Z</time>
      </trkpt>
      <trkpt lat="48.72488" lon="7.14883">
        <ele>301.2</ele>
        <time>2023-12-05T11:28:22Z</time>
      </trkpt>
      <trkpt lat="48.72487" lon="7.1489">
        <ele>301.4</ele>
        <time>2023-12-05T11:28:24Z</time>
      </trkpt>
      <trkpt lat="48.72483" lon="7.14893">
        <ele>301.6</ele>
        <time>2023-12-05T11:29:10Z</time>
      </trkpt>
      <trkpt lat="48.72482" lon="7.1492">
        <ele>302.4</ele>
        <time>2023-12-05T11:29:19Z</time>
      </trkpt>
      <trkpt lat="48.72482" lon="7.14949">
        <ele>303.3</ele>
        <time>2023-12-05T11:29:27Z</time>
      </trkpt>
      <trkpt lat="48.72482" lon="7.14977">
        <ele>304.2</ele>
        <time>2023-12-05T11:29:35Z</time>
      </trkpt>
      <trkpt lat="48.72482" lon="7.15006">
        <ele>305.2</ele>
        <time>2023-12-05T11:29:43Z</time>
      </trkpt>
      <trkpt lat="48.72483" lon="7.15033">
        <ele>306</ele>
        <time>2023-12-05T11:29:51Z</time>
      </trkpt>
      <trkpt lat="48.7248" lon="7.15062">
        <ele>306.9</ele>
        <time>2023-12-05T11:29:59Z</time>
      </trkpt>
      <trkpt lat="48.72479" lon="7.15091">
        <ele>307.8</ele>
        <time>2023-12-05T11:30:07Z</time>
      </trkpt>
      <trkpt lat="48.72475" lon="7.15121">
        <ele>308.7</ele>
        <time>2023-12-05T11:30:15Z</time>
      </trkpt>
      <trkpt lat="48.72474" lon="7.1515">
        <ele>309.4</ele>
        <time>2023-12-05T11:30:23Z</time>
      </trkpt>
      <trkpt lat="48.7247" lon="7.15179">
        <ele>310.1</ele>
        <time>2023-12-05T11:30:31Z</time>
      </trkpt>
      <trkpt lat="48.72467" lon="7.1521">
        <ele>310.9</ele>
        <time>2023-12-05T11:30:39Z</time>
      </trkpt>
      <trkpt lat="48.72469" lon="7.15237">
        <ele>311.6</ele>
        <time>2023-12-05T11:30:46Z</time>
      </trkpt>
      <trkpt lat="48.72468" lon="7.15266">
        <ele>312.3</ele>
        <time>2023-12-05T11:30:53Z</time>
      </trkpt>
      <trkpt lat="48.72467" lon="7.15297">
        <ele>313.1</ele>
        <time>2023-12-05T11:31:01Z</time>
      </trkpt>
      <trkpt lat="48.72465" lon="7.15324">
        <ele>313.8</ele>
        <time>2023-12-05T11:31:08Z</time>
      </trkpt>
      <trkpt lat="48.72464" lon="7.15352">
        <ele>314.6</ele>
        <time>2023-12-05T11:31:15Z</time>
      </trkpt>
      <trkpt lat="48.72462" lon="7.15379">
        <ele>315.5</ele>
        <time>2023-12-05T11:31:22Z</time>
      </trkpt>
      <trkpt lat="48.72461" lon="7.15408">
        <ele>316.4</ele>
        <time>2023-12-05T11:31:30Z</time>
      </trkpt>
      <trkpt lat="48.7246" lon="7.15438">
        <ele>317.2</ele>
        <time>2023-12-05T11:31:38Z</time>
      </trkpt>
      <trkpt lat="48.72457" lon="7.15468">
        <ele>318.1</ele>
        <time>2023-12-05T11:31:46Z</time>
      </trkpt>
      <trkpt lat="48.72455" lon="7.15498">
        <ele>319</ele>
        <time>2023-12-05T11:31:54Z</time>
      </trkpt>
      <trkpt lat="48.72454" lon="7.15528">
        <ele>319.8</ele>
        <time>2023-12-05T11:32:02Z</time>
      </trkpt>
      <trkpt lat="48.72453" lon="7.15558">
        <ele>320.5</ele>
        <time>2023-12-05T11:32:10Z</time>
      </trkpt>
      <trkpt lat="48.72452" lon="7.15587">
        <ele>321.3</ele>
        <time>2023-12-05T11:32:18Z</time>
      </trkpt>
      <trkpt lat="48.7245" lon="7.15614">
        <ele>321.9</ele>
        <time>2023-12-05T11:32:25Z</time>
      </trkpt>
      <trkpt lat="48.7245" lon="7.15645">
        <ele>322.6</ele>
        <time>2023-12-05T11:32:33Z</time>
      </trkpt>
      <trkpt lat="48.7245" lon="7.15674">
        <ele>323.1</ele>
        <time>2023-12-05T11:32:40Z</time>
      </trkpt>
      <trkpt lat="48.72448" lon="7.15702">
        <ele>323.7</ele>
        <time>2023-12-05T11:32:47Z</time>
      </trkpt>
      <trkpt lat="48.72447" lon="7.15732">
        <ele>324.3</ele>
        <time>2023-12-05T11:32:54Z</time>
      </trkpt>
      <trkpt lat="48.72445" lon="7.15762">
        <ele>324.8</ele>
        <time>2023-12-05T11:33:01Z</time>
      </trkpt>
      <trkpt lat="48.72441" lon="7.15791">
        <ele>325.3</ele>
        <time>2023-12-05T11:33:08Z</time>
      </trkpt>
      <trkpt lat="48.72439" lon="7.15822">
        <ele>325.6</ele>
        <time>2023-12-05T11:33:15Z</time>
      </trkpt>
      <trkpt lat="48.72438" lon="7.15853">
        <ele>325.8</ele>
        <time>2023-12-05T11:33:22Z</time>
      </trkpt>
      <trkpt lat="48.72436" lon="7.15881">
        <ele>325.8</ele>
        <time>2023-12-05T11:33:28Z</time>
      </trkpt>
      <trkpt lat="48.72433" lon="7.15908">
        <ele>325.5</ele>
        <time>2023-12-05T11:33:34Z</time>
      </trkpt>
      <trkpt lat="48.72431" lon="7.15937">
        <ele>325.1</ele>
        <time>2023-12-05T11:33:40Z</time>
      </trkpt>
      <trkpt lat="48.72429" lon="7.15966">
        <ele>324.6</ele>
        <time>2023-12-05T11:33:46Z</time>
      </trkpt>
      <trkpt lat="48.72427" lon="7.15993">
        <ele>324.2</ele>
        <time>2023-12-05T11:33:52Z</time>
      </trkpt>
      <trkpt lat="48.72412" lon="7.16006">
        <ele>324.3</ele>
        <time>2023-12-05T11:33:59Z</time>
      </trkpt>
      <trkpt lat="48.72393" lon="7.16016">
        <ele>324.5</ele>
        <time>2023-12-05T11:34:07Z</time>
      </trkpt>
      <trkpt lat="48.72377" lon="7.16034">
        <ele>324.8</ele>
        <time>2023-12-05T11:34:14Z</time>
      </trkpt>
      <trkpt lat="48.72367" lon="7.1606">
        <ele>325</ele>
        <time>2023-12-05T11:34:21Z</time>
      </trkpt>
      <trkpt lat="48.7236" lon="7.16087">
        <ele>325</ele>
        <time>2023-12-05T11:34:28Z</time>
      </trkpt>
      <trkpt lat="48.72355" lon="7.16116">
        <ele>324.9</ele>
        <time>2023-12-05T11:34:35Z</time>
      </trkpt>
      <trkpt lat="48.72351" lon="7.16146">
        <ele>324.8</ele>
        <time>2023-12-05T11:34:42Z</time>
      </trkpt>
      <trkpt lat="48.72346" lon="7.16175">
        <ele>324.8</ele>
        <time>2023-12-05T11:34:49Z</time>
      </trkpt>
      <trkpt lat="48.72341" lon="7.16204">
        <ele>324.7</ele>
        <time>2023-12-05T11:34:56Z</time>
      </trkpt>
      <trkpt lat="48.72337" lon="7.16233">
        <ele>324.5</ele>
        <time>2023-12-05T11:35:03Z</time>
      </trkpt>
      <trkpt lat="48.72332" lon="7.16263">
        <ele>324</ele>
        <time>2023-12-05T11:35:10Z</time>
      </trkpt>
      <trkpt lat="48.72329" lon="7.16294">
        <ele>323.3</ele>
        <time>2023-12-05T11:35:17Z</time>
      </trkpt>
      <trkpt lat="48.72325" lon="7.16321">
        <ele>322.4</ele>
        <time>2023-12-05T11:35:23Z</time>
      </trkpt>
      <trkpt lat="48.72314" lon="7.16348">
        <ele>321.3</ele>
        <time>2023-12-05T11:35:30Z</time>
      </trkpt>
      <trkpt lat="48.72301" lon="7.16367">
        <ele>320.3</ele>
        <time>2023-12-05T11:35:36Z</time>
      </trkpt>
      <trkpt lat="48.72287" lon="7.16384">
        <ele>319.2</ele>
        <time>2023-12-05T11:35:42Z</time>
      </trkpt>
      <trkpt lat="48.72272" lon="7.16403">
        <ele>318.3</ele>
        <time>2023-12-05T11:35:49Z</time>
      </trkpt>
      <trkpt lat="48.72257" lon="7.16422">
        <ele>317.3</ele>
        <time>2023-12-05T11:35:55Z</time>
      </trkpt>
      <trkpt lat="48.72243" lon="7.1644">
        <ele>316.3</ele>
        <time>2023-12-05T11:36:01Z</time>
      </trkpt>
      <trkpt lat="48.7223" lon="7.1646">
        <ele>315.4</ele>
        <time>2023-12-05T11:36:07Z</time>
      </trkpt>
      <trkpt lat="48.72214" lon="7.16479">
        <ele>313.9</ele>
        <time>2023-12-05T11:36:13Z</time>
      </trkpt>
      <trkpt lat="48.72199" lon="7.16494">
        <ele>312.6</ele>
        <time>2023-12-05T11:36:19Z</time>
      </trkpt>
      <trkpt lat="48.7218" lon="7.16505">
        <ele>311.2</ele>
        <time>2023-12-05T11:36:26Z</time>
      </trkpt>
      <trkpt lat="48.7216" lon="7.16509">
        <ele>310.1</ele>
        <time>2023-12-05T11:36:33Z</time>
      </trkpt>
      <trkpt lat="48.7214" lon="7.16505">
        <ele>309</ele>
        <time>2023-12-05T11:36:40Z</time>
      </trkpt>
      <trkpt lat="48.72122" lon="7.16498">
        <ele>308</ele>
        <time>2023-12-05T11:36:46Z</time>
      </trkpt>
      <trkpt lat="48.72102" lon="7.1649">
        <ele>307.4</ele>
        <time>2023-12-05T11:36:53Z</time>
      </trkpt>
      <trkpt lat="48.72082" lon="7.1648">
        <ele>306.2</ele>
        <time>2023-12-05T11:37:00Z</time>
      </trkpt>
      <trkpt lat="48.72064" lon="7.1647">
        <ele>305.1</ele>
        <time>2023-12-05T11:37:07Z</time>
      </trkpt>
      <trkpt lat="48.72045" lon="7.16459">
        <ele>303.8</ele>
        <time>2023-12-05T11:37:14Z</time>
      </trkpt>
      <trkpt lat="48.72026" lon="7.16447">
        <ele>302.4</ele>
        <time>2023-12-05T11:37:21Z</time>
      </trkpt>
      <trkpt lat="48.72007" lon="7.16436">
        <ele>301.2</ele>
        <time>2023-12-05T11:37:28Z</time>
      </trkpt>
      <trkpt lat="48.71987" lon="7.16427">
        <ele>300.1</ele>
        <time>2023-12-05T11:37:35Z</time>
      </trkpt>
      <trkpt lat="48.71969" lon="7.16426">
        <ele>299.4</ele>
        <time>2023-12-05T11:37:42Z</time>
      </trkpt>
      <trkpt lat="48.71949" lon="7.16429">
        <ele>298.7</ele>
        <time>2023-12-05T11:37:49Z</time>
      </trkpt>
      <trkpt lat="48.71929" lon="7.16418">
        <ele>298.4</ele>
        <time>2023-12-05T11:37:56Z</time>
      </trkpt>
      <trkpt lat="48.71911" lon="7.16406">
        <ele>298.2</ele>
        <time>2023-12-05T11:38:02Z</time>
      </trkpt>
      <trkpt lat="48.71896" lon="7.16391">
        <ele>298.1</ele>
        <time>2023-12-05T11:38:08Z</time>
      </trkpt>
      <trkpt lat="48.7188" lon="7.16375">
        <ele>298</ele>
        <time>2023-12-05T11:38:15Z</time>
      </trkpt>
      <trkpt lat="48.71863" lon="7.16357">
        <ele>298</ele>
        <time>2023-12-05T11:38:22Z</time>
      </trkpt>
      <trkpt lat="48.71845" lon="7.16346">
        <ele>297.9</ele>
        <time>2023-12-05T11:38:29Z</time>
      </trkpt>
      <trkpt lat="48.71828" lon="7.16333">
        <ele>298.4</ele>
        <time>2023-12-05T11:38:36Z</time>
      </trkpt>
      <trkpt lat="48.71812" lon="7.16319">
        <ele>299.4</ele>
        <time>2023-12-05T11:38:43Z</time>
      </trkpt>
      <trkpt lat="48.71795" lon="7.16308">
        <ele>300.4</ele>
        <time>2023-12-05T11:38:50Z</time>
      </trkpt>
      <trkpt lat="48.71776" lon="7.16302">
        <ele>301.4</ele>
        <time>2023-12-05T11:38:58Z</time>
      </trkpt>
      <trkpt lat="48.71759" lon="7.16316">
        <ele>301</ele>
        <time>2023-12-05T11:39:07Z</time>
      </trkpt>
      <trkpt lat="48.71744" lon="7.1633">
        <ele>301.2</ele>
        <time>2023-12-05T11:39:13Z</time>
      </trkpt>
      <trkpt lat="48.71725" lon="7.16331">
        <ele>301.8</ele>
        <time>2023-12-05T11:39:20Z</time>
      </trkpt>
      <trkpt lat="48.71705" lon="7.16334">
        <ele>302.3</ele>
        <time>2023-12-05T11:39:27Z</time>
      </trkpt>
      <trkpt lat="48.71685" lon="7.16337">
        <ele>302.9</ele>
        <time>2023-12-05T11:39:35Z</time>
      </trkpt>
      <trkpt lat="48.71664" lon="7.16338">
        <ele>303.7</ele>
        <time>2023-12-05T11:39:42Z</time>
      </trkpt>
      <trkpt lat="48.71645" lon="7.16337">
        <ele>304.4</ele>
        <time>2023-12-05T11:39:49Z</time>
      </trkpt>
      <trkpt lat="48.71626" lon="7.1633">
        <ele>304.9</ele>
        <time>2023-12-05T11:39:56Z</time>
      </trkpt>
      <trkpt lat="48.71607" lon="7.16331">
        <ele>305.3</ele>
        <time>2023-12-05T11:40:03Z</time>
      </trkpt>
      <trkpt lat="48.71588" lon="7.16344">
        <ele>303.6</ele>
        <time>2023-12-05T11:40:10Z</time>
      </trkpt>
      <trkpt lat="48.71573" lon="7.16362">
        <ele>302.3</ele>
        <time>2023-12-05T11:40:16Z</time>
      </trkpt>
      <trkpt lat="48.71555" lon="7.16365">
        <ele>302.4</ele>
        <time>2023-12-05T11:40:23Z</time>
      </trkpt>
      <trkpt lat="48.71535" lon="7.16369">
        <ele>303</ele>
        <time>2023-12-05T11:40:31Z</time>
      </trkpt>
      <trkpt lat="48.71518" lon="7.1638">
        <ele>303.7</ele>
        <time>2023-12-05T11:40:38Z</time>
      </trkpt>
      <trkpt lat="48.71503" lon="7.16397">
        <ele>304.4</ele>
        <time>2023-12-05T11:40:44Z</time>
      </trkpt>
      <trkpt lat="48.71483" lon="7.16404">
        <ele>305.2</ele>
        <time>2023-12-05T11:40:52Z</time>
      </trkpt>
      <trkpt lat="48.71464" lon="7.16404">
        <ele>306.1</ele>
        <time>2023-12-05T11:40:58Z</time>
      </trkpt>
      <trkpt lat="48.71445" lon="7.16404">
        <ele>307.2</ele>
        <time>2023-12-05T11:41:04Z</time>
      </trkpt>
      <trkpt lat="48.71426" lon="7.164">
        <ele>308.2</ele>
        <time>2023-12-05T11:41:11Z</time>
      </trkpt>
      <trkpt lat="48.71407" lon="7.16396">
        <ele>309.1</ele>
        <time>2023-12-05T11:41:18Z</time>
      </trkpt>
      <trkpt lat="48.71387" lon="7.16388">
        <ele>310</ele>
        <time>2023-12-05T11:41:26Z</time>
      </trkpt>
      <trkpt lat="48.71369" lon="7.16381">
        <ele>310.7</ele>
        <time>2023-12-05T11:41:33Z</time>
      </trkpt>
      <trkpt lat="48.71351" lon="7.16374">
        <ele>311.1</ele>
        <time>2023-12-05T11:41:41Z</time>
      </trkpt>
      <trkpt lat="48.71332" lon="7.16366">
        <ele>311.4</ele>
        <time>2023-12-05T11:41:48Z</time>
      </trkpt>
      <trkpt lat="48.71314" lon="7.16356">
        <ele>311.7</ele>
        <time>2023-12-05T11:41:54Z</time>
      </trkpt>
      <trkpt lat="48.71297" lon="7.16343">
        <ele>311.9</ele>
        <time>2023-12-05T11:42:01Z</time>
      </trkpt>
      <trkpt lat="48.71278" lon="7.16329">
        <ele>312.1</ele>
        <time>2023-12-05T11:42:08Z</time>
      </trkpt>
      <trkpt lat="48.71262" lon="7.16313">
        <ele>312.4</ele>
        <time>2023-12-05T11:42:15Z</time>
      </trkpt>
      <trkpt lat="48.71245" lon="7.16298">
        <ele>312.7</ele>
        <time>2023-12-05T11:42:22Z</time>
      </trkpt>
      <trkpt lat="48.7123" lon="7.16283">
        <ele>313.1</ele>
        <time>2023-12-05T11:42:29Z</time>
      </trkpt>
      <trkpt lat="48.71213" lon="7.16268">
        <ele>313.6</ele>
        <time>2023-12-05T11:42:36Z</time>
      </trkpt>
      <trkpt lat="48.71195" lon="7.16255">
        <ele>314.4</ele>
        <time>2023-12-05T11:42:43Z</time>
      </trkpt>
      <trkpt lat="48.71175" lon="7.16253">
        <ele>315.3</ele>
        <time>2023-12-05T11:42:51Z</time>
      </trkpt>
      <trkpt lat="48.71157" lon="7.16267">
        <ele>316.3</ele>
        <time>2023-12-05T11:42:59Z</time>
      </trkpt>
      <trkpt lat="48.71146" lon="7.16274">
        <ele>316.9</ele>
        <time>2023-12-05T11:43:04Z</time>
      </trkpt>
    </trkseg>
  </trk>
</gpx>